sensor_id;sensor_type;location;lat;lon;timestamp;pressure;altitude;pressure_sealevel;temperature;humidity
69306;BME280;56427;51.580;4.656;2023-10-08T00:02:03;102371.59;;;15.72;78.57
69306;BME280;56427;51.580;4.656;2023-10-08T00:04:32;102369.13;;;15.69;78.55
69306;BME280;56427;51.580;4.656;2023-10-08T00:07:05;102368.66;;;15.59;78.92
69306;BME280;56427;51.580;4.656;2023-10-08T00:09:34;102368.78;;;15.56;79.53
69306;BME280;56427;51.580;4.656;2023-10-08T00:12:03;102378.41;;;15.55;79.94
69306;BME280;56427;51.580;4.656;2023-10-08T00:14:30;102379.44;;;15.51;79.88
69306;BME280;56427;51.580;4.656;2023-10-08T00:16:57;102373.28;;;15.52;80.04
69306;BME280;56427;51.580;4.656;2023-10-08T00:19:23;102394.28;;;15.51;80.07
69306;BME280;56427;51.580;4.656;2023-10-08T00:21:50;102386.31;;;15.54;79.98
69306;BME280;56427;51.580;4.656;2023-10-08T00:24:18;102400.44;;;15.50;80.06
69306;BME280;56427;51.580;4.656;2023-10-08T00:26:43;102404.06;;;15.47;80.04
69306;BME280;56427;51.580;4.656;2023-10-08T00:29:09;102394.91;;;15.37;80.57
69306;BME280;56427;51.580;4.656;2023-10-08T00:32:01;102401.22;;;15.31;80.74
69306;BME280;56427;51.580;4.656;2023-10-08T00:34:37;102393.53;;;15.28;81.08
69306;BME280;56427;51.580;4.656;2023-10-08T00:37:07;102402.28;;;15.27;81.17
69306;BME280;56427;51.580;4.656;2023-10-08T00:39:34;102399.72;;;15.26;81.23
69306;BME280;56427;51.580;4.656;2023-10-08T00:42:02;102393.47;;;15.30;80.96
69306;BME280;56427;51.580;4.656;2023-10-08T00:44:30;102384.09;;;15.24;81.15
69306;BME280;56427;51.580;4.656;2023-10-08T00:46:59;102389.50;;;15.21;81.27
69306;BME280;56427;51.580;4.656;2023-10-08T00:49:27;102382.59;;;15.19;81.39
69306;BME280;56427;51.580;4.656;2023-10-08T00:52:10;102380.13;;;15.16;81.42
69306;BME280;56427;51.580;4.656;2023-10-08T00:54:37;102383.97;;;15.07;81.35
69306;BME280;56427;51.580;4.656;2023-10-08T00:57:15;102388.41;;;15.05;81.41
69306;BME280;56427;51.580;4.656;2023-10-08T00:59:45;102380.84;;;14.99;81.75
69306;BME280;56427;51.580;4.656;2023-10-08T01:02:17;102376.63;;;14.95;81.53
69306;BME280;56427;51.580;4.656;2023-10-08T01:04:45;102379.47;;;14.90;81.91
69306;BME280;56427;51.580;4.656;2023-10-08T01:07:13;102369.19;;;14.86;81.54
69306;BME280;56427;51.580;4.656;2023-10-08T01:09:42;102358.69;;;14.87;82.05
69306;BME280;56427;51.580;4.656;2023-10-08T01:14:42;102350.84;;;14.87;81.39
69306;BME280;56427;51.580;4.656;2023-10-08T01:17:10;102359.66;;;14.84;81.27
69306;BME280;56427;51.580;4.656;2023-10-08T01:19:49;102353.59;;;14.84;81.31
69306;BME280;56427;51.580;4.656;2023-10-08T01:22:20;102338.75;;;14.84;81.00
69306;BME280;56427;51.580;4.656;2023-10-08T01:24:48;102337.94;;;14.82;81.31
69306;BME280;56427;51.580;4.656;2023-10-08T01:27:15;102342.34;;;14.82;81.30
69306;BME280;56427;51.580;4.656;2023-10-08T01:29:46;102351.94;;;14.81;81.12
69306;BME280;56427;51.580;4.656;2023-10-08T01:32:11;102359.06;;;14.78;81.23
69306;BME280;56427;51.580;4.656;2023-10-08T01:34:41;102353.84;;;14.78;81.08
69306;BME280;56427;51.580;4.656;2023-10-08T01:37:17;102346.03;;;14.76;81.00
69306;BME280;56427;51.580;4.656;2023-10-08T01:39:46;102358.41;;;14.73;81.53
69306;BME280;56427;51.580;4.656;2023-10-08T01:42:18;102376.50;;;14.77;81.69
69306;BME280;56427;51.580;4.656;2023-10-08T01:44:49;102373.75;;;14.80;81.20
69306;BME280;56427;51.580;4.656;2023-10-08T01:47:16;102367.53;;;14.83;81.27
69306;BME280;56427;51.580;4.656;2023-10-08T01:49:45;102389.19;;;14.87;81.02
69306;BME280;56427;51.580;4.656;2023-10-08T01:52:12;102384.56;;;14.93;80.99
69306;BME280;56427;51.580;4.656;2023-10-08T01:54:48;102380.91;;;14.97;80.77
69306;BME280;56427;51.580;4.656;2023-10-08T01:57:14;102378.81;;;15.05;80.65
69306;BME280;56427;51.580;4.656;2023-10-08T01:59:40;102383.44;;;14.99;81.06
69306;BME280;56427;51.580;4.656;2023-10-08T02:02:06;102386.19;;;14.96;81.54
69306;BME280;56427;51.580;4.656;2023-10-08T02:04:35;102383.25;;;15.03;81.04
69306;BME280;56427;51.580;4.656;2023-10-08T02:07:04;102393.75;;;15.02;80.93
69306;BME280;56427;51.580;4.656;2023-10-08T02:09:33;102390.31;;;15.01;81.15
69306;BME280;56427;51.580;4.656;2023-10-08T02:11:58;102393.31;;;15.13;81.09
69306;BME280;56427;51.580;4.656;2023-10-08T02:14:24;102391.78;;;15.08;81.16
69306;BME280;56427;51.580;4.656;2023-10-08T02:16:49;102392.06;;;15.01;81.17
69306;BME280;56427;51.580;4.656;2023-10-08T02:19:20;102388.94;;;14.93;81.61
69306;BME280;56427;51.580;4.656;2023-10-08T02:21:53;102385.06;;;15.01;81.31
69306;BME280;56427;51.580;4.656;2023-10-08T02:24:20;102382.28;;;15.06;80.99
69306;BME280;56427;51.580;4.656;2023-10-08T02:26:47;102390.69;;;14.92;81.34
69306;BME280;56427;51.580;4.656;2023-10-08T02:29:12;102392.31;;;14.95;81.41
69306;BME280;56427;51.580;4.656;2023-10-08T02:31:39;102400.13;;;14.96;80.88
69306;BME280;56427;51.580;4.656;2023-10-08T02:34:06;102392.03;;;15.02;81.00
69306;BME280;56427;51.580;4.656;2023-10-08T02:36:39;102400.06;;;14.98;80.92
69306;BME280;56427;51.580;4.656;2023-10-08T02:39:08;102402.84;;;14.93;81.28
69306;BME280;56427;51.580;4.656;2023-10-08T02:41:47;102405.28;;;14.98;80.93
69306;BME280;56427;51.580;4.656;2023-10-08T02:44:14;102409.50;;;15.00;80.98
69306;BME280;56427;51.580;4.656;2023-10-08T02:46:44;102401.41;;;15.06;80.66
69306;BME280;56427;51.580;4.656;2023-10-08T02:49:13;102404.09;;;15.05;80.59
69306;BME280;56427;51.580;4.656;2023-10-08T02:51:45;102404.88;;;15.07;80.57
69306;BME280;56427;51.580;4.656;2023-10-08T02:54:11;102405.34;;;15.17;80.21
69306;BME280;56427;51.580;4.656;2023-10-08T02:56:48;102394.97;;;15.15;80.09
69306;BME280;56427;51.580;4.656;2023-10-08T02:59:16;102395.84;;;15.14;80.48
69306;BME280;56427;51.580;4.656;2023-10-08T03:01:41;102399.88;;;15.02;81.23
69306;BME280;56427;51.580;4.656;2023-10-08T03:04:09;102400.63;;;15.04;81.01
69306;BME280;56427;51.580;4.656;2023-10-08T03:06:43;102404.94;;;15.05;80.91
69306;BME280;56427;51.580;4.656;2023-10-08T03:09:10;102420.53;;;15.08;80.85
69306;BME280;56427;51.580;4.656;2023-10-08T03:11:39;102420.78;;;15.02;80.90
69306;BME280;56427;51.580;4.656;2023-10-08T03:14:04;102413.03;;;14.99;81.40
69306;BME280;56427;51.580;4.656;2023-10-08T03:16:30;102423.56;;;14.98;81.48
69306;BME280;56427;51.580;4.656;2023-10-08T03:19:01;102420.88;;;14.99;81.33
69306;BME280;56427;51.580;4.656;2023-10-08T03:21:26;102427.81;;;15.00;81.59
69306;BME280;56427;51.580;4.656;2023-10-08T03:24:04;102426.84;;;15.03;81.33
69306;BME280;56427;51.580;4.656;2023-10-08T03:26:38;102429.47;;;15.03;81.53
69306;BME280;56427;51.580;4.656;2023-10-08T03:29:10;102427.94;;;14.97;81.58
69306;BME280;56427;51.580;4.656;2023-10-08T03:31:43;102421.03;;;14.96;81.88
69306;BME280;56427;51.580;4.656;2023-10-08T03:34:15;102416.75;;;14.94;82.38
69306;BME280;56427;51.580;4.656;2023-10-08T03:36:41;102421.47;;;14.86;82.46
69306;BME280;56427;51.580;4.656;2023-10-08T03:39:16;102415.19;;;14.90;82.17
69306;BME280;56427;51.580;4.656;2023-10-08T03:41:44;102412.38;;;14.94;82.35
69306;BME280;56427;51.580;4.656;2023-10-08T03:44:29;102413.53;;;14.87;82.58
69306;BME280;56427;51.580;4.656;2023-10-08T03:46:55;102407.41;;;14.88;82.76
69306;BME280;56427;51.580;4.656;2023-10-08T03:49:23;102404.44;;;14.75;82.71
69306;BME280;56427;51.580;4.656;2023-10-08T03:51:49;102408.75;;;14.76;82.79
69306;BME280;56427;51.580;4.656;2023-10-08T03:54:18;102394.13;;;14.72;83.12
69306;BME280;56427;51.580;4.656;2023-10-08T03:56:45;102407.38;;;14.68;83.21
69306;BME280;56427;51.580;4.656;2023-10-08T03:59:16;102412.72;;;14.65;83.65
69306;BME280;56427;51.580;4.656;2023-10-08T04:02:03;102423.34;;;14.60;83.77
69306;BME280;56427;51.580;4.656;2023-10-08T04:04:48;102433.50;;;14.68;83.52
69306;BME280;56427;51.580;4.656;2023-10-08T04:07:24;102427.50;;;14.66;83.58
69306;BME280;56427;51.580;4.656;2023-10-08T04:09:55;102435.31;;;14.66;83.73
69306;BME280;56427;51.580;4.656;2023-10-08T04:12:40;102436.34;;;14.62;83.96
69306;BME280;56427;51.580;4.656;2023-10-08T04:15:14;102448.06;;;14.73;83.92
69306;BME280;56427;51.580;4.656;2023-10-08T04:17:41;102448.38;;;14.66;84.08
69306;BME280;56427;51.580;4.656;2023-10-08T04:20:14;102450.75;;;14.72;84.09
69306;BME280;56427;51.580;4.656;2023-10-08T04:23:00;102441.09;;;14.74;83.87
69306;BME280;56427;51.580;4.656;2023-10-08T04:25:29;102446.44;;;14.71;84.26
69306;BME280;56427;51.580;4.656;2023-10-08T04:27:56;102441.00;;;14.75;84.09
69306;BME280;56427;51.580;4.656;2023-10-08T04:30:32;102437.63;;;14.73;84.50
69306;BME280;56427;51.580;4.656;2023-10-08T04:33:04;102437.06;;;14.87;84.16
69306;BME280;56427;51.580;4.656;2023-10-08T04:35:38;102443.31;;;14.83;84.42
69306;BME280;56427;51.580;4.656;2023-10-08T04:38:19;102439.59;;;14.89;83.90
69306;BME280;56427;51.580;4.656;2023-10-08T04:40:47;102440.94;;;14.77;84.79
69306;BME280;56427;51.580;4.656;2023-10-08T04:43:18;102444.97;;;14.86;84.48
69306;BME280;56427;51.580;4.656;2023-10-08T04:46:00;102452.22;;;14.79;85.19
69306;BME280;56427;51.580;4.656;2023-10-08T04:48:48;102455.66;;;14.79;84.76
69306;BME280;56427;51.580;4.656;2023-10-08T04:51:17;102454.81;;;14.79;84.46
69306;BME280;56427;51.580;4.656;2023-10-08T04:53:43;102466.72;;;14.86;84.27
69306;BME280;56427;51.580;4.656;2023-10-08T04:56:13;102456.13;;;14.89;84.01
69306;BME280;56427;51.580;4.656;2023-10-08T04:58:39;102464.88;;;14.88;83.70
69306;BME280;56427;51.580;4.656;2023-10-08T05:01:06;102461.84;;;14.77;84.49
69306;BME280;56427;51.580;4.656;2023-10-08T05:03:51;102465.97;;;14.82;84.51
69306;BME280;56427;51.580;4.656;2023-10-08T05:06:29;102459.31;;;14.75;84.68
69306;BME280;56427;51.580;4.656;2023-10-08T05:11:50;102465.94;;;14.84;84.81
69306;BME280;56427;51.580;4.656;2023-10-08T05:14:22;102471.69;;;14.70;84.97
69306;BME280;56427;51.580;4.656;2023-10-08T05:17:05;102475.78;;;14.77;84.52
69306;BME280;56427;51.580;4.656;2023-10-08T05:19:47;102488.03;;;14.75;84.55
69306;BME280;56427;51.580;4.656;2023-10-08T05:22:15;102493.09;;;14.80;84.58
69306;BME280;56427;51.580;4.656;2023-10-08T05:25:04;102499.41;;;14.74;84.27
69306;BME280;56427;51.580;4.656;2023-10-08T05:27:33;102501.09;;;14.75;84.05
69306;BME280;56427;51.580;4.656;2023-10-08T05:30:21;102503.78;;;14.74;83.97
69306;BME280;56427;51.580;4.656;2023-10-08T05:33:04;102502.31;;;14.67;84.11
69306;BME280;56427;51.580;4.656;2023-10-08T05:35:39;102495.88;;;14.53;84.80
69306;BME280;56427;51.580;4.656;2023-10-08T05:38:05;102493.03;;;14.60;84.95
69306;BME280;56427;51.580;4.656;2023-10-08T05:40:51;102485.72;;;14.44;85.57
69306;BME280;56427;51.580;4.656;2023-10-08T05:43:30;102485.59;;;14.49;85.65
69306;BME280;56427;51.580;4.656;2023-10-08T05:46:19;102480.72;;;14.38;86.15
69306;BME280;56427;51.580;4.656;2023-10-08T05:48:50;102490.75;;;14.50;85.51
69306;BME280;56427;51.580;4.656;2023-10-08T05:51:27;102487.56;;;14.42;85.87
69306;BME280;56427;51.580;4.656;2023-10-08T05:54:25;102479.25;;;14.31;86.33
69306;BME280;56427;51.580;4.656;2023-10-08T05:56:58;102482.56;;;14.36;85.70
69306;BME280;56427;51.580;4.656;2023-10-08T05:59:44;102475.72;;;14.34;86.26
69306;BME280;56427;51.580;4.656;2023-10-08T06:02:26;102471.28;;;14.36;86.05
69306;BME280;56427;51.580;4.656;2023-10-08T06:07:52;102474.28;;;14.25;86.66
69306;BME280;56427;51.580;4.656;2023-10-08T06:10:27;102478.72;;;14.23;86.48
69306;BME280;56427;51.580;4.656;2023-10-08T06:13:06;102469.13;;;14.23;86.77
69306;BME280;56427;51.580;4.656;2023-10-08T06:15:48;102458.38;;;14.08;87.46
69306;BME280;56427;51.580;4.656;2023-10-08T06:18:20;102460.53;;;14.20;87.22
69306;BME280;56427;51.580;4.656;2023-10-08T06:20:52;102471.66;;;14.25;87.45
69306;BME280;56427;51.580;4.656;2023-10-08T06:23:21;102468.72;;;14.34;87.42
69306;BME280;56427;51.580;4.656;2023-10-08T06:25:49;102473.59;;;14.43;86.87
69306;BME280;56427;51.580;4.656;2023-10-08T06:28:21;102474.03;;;14.31;87.52
69306;BME280;56427;51.580;4.656;2023-10-08T06:30:52;102481.84;;;14.56;87.06
69306;BME280;56427;51.580;4.656;2023-10-08T06:33:24;102475.53;;;14.62;86.74
69306;BME280;56427;51.580;4.656;2023-10-08T06:35:52;102487.38;;;14.70;86.09
69306;BME280;56427;51.580;4.656;2023-10-08T06:38:44;102516.25;;;14.89;85.76
69306;BME280;56427;51.580;4.656;2023-10-08T06:41:14;102510.00;;;14.93;84.41
69306;BME280;56427;51.580;4.656;2023-10-08T06:43:43;102506.72;;;15.10;84.57
69306;BME280;56427;51.580;4.656;2023-10-08T06:46:15;102510.88;;;15.36;83.90
69306;BME280;56427;51.580;4.656;2023-10-08T06:48:41;102512.50;;;15.38;83.71
69306;BME280;56427;51.580;4.656;2023-10-08T06:51:11;102515.28;;;15.56;83.10
69306;BME280;56427;51.580;4.656;2023-10-08T06:53:41;102513.56;;;15.55;83.01
69306;BME280;56427;51.580;4.656;2023-10-08T06:56:07;102502.94;;;15.80;82.04
69306;BME280;56427;51.580;4.656;2023-10-08T06:58:35;102511.13;;;15.72;82.14
69306;BME280;56427;51.580;4.656;2023-10-08T07:01:01;102509.47;;;15.90;81.32
69306;BME280;56427;51.580;4.656;2023-10-08T07:03:30;102515.97;;;15.81;81.79
69306;BME280;56427;51.580;4.656;2023-10-08T07:05:58;102519.44;;;15.82;81.76
69306;BME280;56427;51.580;4.656;2023-10-08T07:08:26;102509.84;;;16.01;80.87
69306;BME280;56427;51.580;4.656;2023-10-08T07:10:53;102514.38;;;16.37;79.97
69306;BME280;56427;51.580;4.656;2023-10-08T07:13:22;102511.59;;;16.96;77.73
69306;BME280;56427;51.580;4.656;2023-10-08T07:15:49;102505.19;;;16.47;78.68
69306;BME280;56427;51.580;4.656;2023-10-08T07:18:14;102511.38;;;17.01;77.14
69306;BME280;56427;51.580;4.656;2023-10-08T07:20:44;102519.19;;;17.20;76.11
69306;BME280;56427;51.580;4.656;2023-10-08T07:23:11;102519.53;;;17.83;73.98
69306;BME280;56427;51.580;4.656;2023-10-08T07:25:57;102521.00;;;18.86;70.24
69306;BME280;56427;51.580;4.656;2023-10-08T07:28:44;102520.66;;;19.69;68.02
69306;BME280;56427;51.580;4.656;2023-10-08T07:31:18;102529.03;;;20.75;63.87
69306;BME280;56427;51.580;4.656;2023-10-08T07:33:49;102535.06;;;20.34;64.87
69306;BME280;56427;51.580;4.656;2023-10-08T07:36:41;102536.69;;;20.23;65.50
69306;BME280;56427;51.580;4.656;2023-10-08T07:39:07;102535.75;;;20.52;65.17
69306;BME280;56427;51.580;4.656;2023-10-08T07:41:45;102543.34;;;19.85;66.09
69306;BME280;56427;51.580;4.656;2023-10-08T07:44:12;102535.66;;;20.54;65.87
69306;BME280;56427;51.580;4.656;2023-10-08T07:46:38;102544.66;;;20.35;65.62
69306;BME280;56427;51.580;4.656;2023-10-08T07:49:03;102546.19;;;20.39;65.27
69306;BME280;56427;51.580;4.656;2023-10-08T07:51:30;102555.91;;;20.25;65.77
69306;BME280;56427;51.580;4.656;2023-10-08T07:53:56;102551.66;;;20.08;67.16
69306;BME280;56427;51.580;4.656;2023-10-08T07:56:26;102547.31;;;20.07;66.82
69306;BME280;56427;51.580;4.656;2023-10-08T07:58:52;102555.31;;;20.34;66.22
69306;BME280;56427;51.580;4.656;2023-10-08T08:01:20;102565.03;;;20.33;66.50
69306;BME280;56427;51.580;4.656;2023-10-08T08:03:46;102565.03;;;20.19;66.32
69306;BME280;56427;51.580;4.656;2023-10-08T08:06:14;102567.03;;;18.62;71.90
69306;BME280;56427;51.580;4.656;2023-10-08T08:08:41;102572.22;;;18.30;73.53
69306;BME280;56427;51.580;4.656;2023-10-08T08:11:07;102576.97;;;17.72;76.05
69306;BME280;56427;51.580;4.656;2023-10-08T08:13:43;102589.44;;;17.86;75.75
69306;BME280;56427;51.580;4.656;2023-10-08T08:16:12;102589.94;;;18.10;75.49
69306;BME280;56427;51.580;4.656;2023-10-08T08:18:48;102588.88;;;18.80;73.45
69306;BME280;56427;51.580;4.656;2023-10-08T08:21:15;102590.69;;;19.41;71.65
69306;BME280;56427;51.580;4.656;2023-10-08T08:23:46;102604.94;;;20.13;69.15
69306;BME280;56427;51.580;4.656;2023-10-08T08:26:20;102598.56;;;19.41;70.04
69306;BME280;56427;51.580;4.656;2023-10-08T08:29:01;102607.47;;;18.93;72.48
69306;BME280;56427;51.580;4.656;2023-10-08T08:31:30;102609.16;;;18.94;73.50
69306;BME280;56427;51.580;4.656;2023-10-08T08:34:01;102610.72;;;18.31;74.87
69306;BME280;56427;51.580;4.656;2023-10-08T08:36:39;102617.50;;;17.66;77.87
69306;BME280;56427;51.580;4.656;2023-10-08T08:39:11;102614.22;;;17.44;79.55
69306;BME280;56427;51.580;4.656;2023-10-08T08:41:37;102618.78;;;18.11;78.27
69306;BME280;56427;51.580;4.656;2023-10-08T08:44:03;102618.25;;;17.87;77.60
69306;BME280;56427;51.580;4.656;2023-10-08T08:46:37;102612.66;;;17.04;81.58
69306;BME280;56427;51.580;4.656;2023-10-08T08:49:05;102612.97;;;17.15;82.08
69306;BME280;56427;51.580;4.656;2023-10-08T08:51:37;102608.09;;;17.26;82.25
69306;BME280;56427;51.580;4.656;2023-10-08T08:54:03;102616.88;;;17.61;81.69
69306;BME280;56427;51.580;4.656;2023-10-08T08:56:36;102614.84;;;16.94;83.05
69306;BME280;56427;51.580;4.656;2023-10-08T08:59:06;102609.25;;;17.02;83.43
69306;BME280;56427;51.580;4.656;2023-10-08T09:01:38;102609.72;;;17.29;82.63
69306;BME280;56427;51.580;4.656;2023-10-08T09:04:05;102613.13;;;17.67;81.64
69306;BME280;56427;51.580;4.656;2023-10-08T09:06:33;102614.25;;;17.61;81.98
69306;BME280;56427;51.580;4.656;2023-10-08T09:09:03;102622.59;;;17.33;82.83
69306;BME280;56427;51.580;4.656;2023-10-08T09:11:51;102619.78;;;17.38;83.22
69306;BME280;56427;51.580;4.656;2023-10-08T09:14:23;102629.47;;;17.55;82.49
69306;BME280;56427;51.580;4.656;2023-10-08T09:16:51;102627.47;;;17.41;83.07
69306;BME280;56427;51.580;4.656;2023-10-08T09:19:17;102629.66;;;17.50;82.86
69306;BME280;56427;51.580;4.656;2023-10-08T09:22:07;102623.56;;;17.49;82.54
69306;BME280;56427;51.580;4.656;2023-10-08T09:24:34;102629.50;;;17.72;82.72
69306;BME280;56427;51.580;4.656;2023-10-08T09:27:03;102628.66;;;17.89;81.56
69306;BME280;56427;51.580;4.656;2023-10-08T09:29:29;102632.66;;;18.13;80.82
69306;BME280;56427;51.580;4.656;2023-10-08T09:31:58;102626.97;;;18.05;80.94
69306;BME280;56427;51.580;4.656;2023-10-08T09:34:31;102618.53;;;18.16;80.50
69306;BME280;56427;51.580;4.656;2023-10-08T09:36:59;102621.84;;;18.19;80.32
69306;BME280;56427;51.580;4.656;2023-10-08T09:39:30;102618.41;;;18.34;79.85
69306;BME280;56427;51.580;4.656;2023-10-08T09:42:00;102610.09;;;18.93;78.03
69306;BME280;56427;51.580;4.656;2023-10-08T09:44:28;102611.28;;;19.19;76.21
69306;BME280;56427;51.580;4.656;2023-10-08T09:47:03;102620.25;;;19.14;76.66
69306;BME280;56427;51.580;4.656;2023-10-08T09:52:16;102603.97;;;18.92;78.18
69306;BME280;56427;51.580;4.656;2023-10-08T09:54:54;102602.75;;;18.98;77.61
69306;BME280;56427;51.580;4.656;2023-10-08T09:57:22;102604.47;;;19.30;76.79
69306;BME280;56427;51.580;4.656;2023-10-08T09:59:52;102611.13;;;19.52;76.67
69306;BME280;56427;51.580;4.656;2023-10-08T10:02:19;102610.38;;;19.34;76.06
69306;BME280;56427;51.580;4.656;2023-10-08T10:04:50;102616.31;;;19.53;76.46
69306;BME280;56427;51.580;4.656;2023-10-08T10:07:18;102616.53;;;19.80;74.29
69306;BME280;56427;51.580;4.656;2023-10-08T10:09:46;102623.28;;;19.70;74.70
69306;BME280;56427;51.580;4.656;2023-10-08T10:12:18;102616.41;;;19.52;76.37
69306;BME280;56427;51.580;4.656;2023-10-08T10:14:46;102617.25;;;19.52;75.67
69306;BME280;56427;51.580;4.656;2023-10-08T10:17:19;102621.06;;;19.47;76.44
69306;BME280;56427;51.580;4.656;2023-10-08T10:19:50;102617.28;;;19.82;75.16
69306;BME280;56427;51.580;4.656;2023-10-08T10:22:30;102612.19;;;19.79;74.14
69306;BME280;56427;51.580;4.656;2023-10-08T10:24:58;102612.78;;;20.43;73.24
69306;BME280;56427;51.580;4.656;2023-10-08T10:27:25;102606.78;;;19.97;75.24
69306;BME280;56427;51.580;4.656;2023-10-08T10:30:01;102610.63;;;19.45;75.24
69306;BME280;56427;51.580;4.656;2023-10-08T10:32:29;102615.00;;;19.30;76.47
69306;BME280;56427;51.580;4.656;2023-10-08T10:34:54;102598.91;;;19.51;76.22
69306;BME280;56427;51.580;4.656;2023-10-08T10:37:20;102601.81;;;19.62;75.69
69306;BME280;56427;51.580;4.656;2023-10-08T10:39:55;102593.06;;;19.61;76.14
69306;BME280;56427;51.580;4.656;2023-10-08T10:42:24;102589.19;;;19.67;75.49
69306;BME280;56427;51.580;4.656;2023-10-08T10:44:52;102589.19;;;19.97;74.64
69306;BME280;56427;51.580;4.656;2023-10-08T10:47:19;102588.16;;;20.42;73.56
69306;BME280;56427;51.580;4.656;2023-10-08T10:49:49;102598.94;;;20.54;72.90
69306;BME280;56427;51.580;4.656;2023-10-08T10:52:28;102608.03;;;20.34;73.25
69306;BME280;56427;51.580;4.656;2023-10-08T10:55:05;102607.41;;;20.59;72.51
69306;BME280;56427;51.580;4.656;2023-10-08T10:57:55;102614.06;;;20.79;72.65
69306;BME280;56427;51.580;4.656;2023-10-08T11:00:23;102621.25;;;21.32;70.28
69306;BME280;56427;51.580;4.656;2023-10-08T11:02:59;102611.56;;;21.04;71.23
69306;BME280;56427;51.580;4.656;2023-10-08T11:05:33;102615.31;;;21.28;69.08
69306;BME280;56427;51.580;4.656;2023-10-08T11:08:04;102606.84;;;20.68;72.19
69306;BME280;56427;51.580;4.656;2023-10-08T11:10:33;102607.41;;;20.59;72.02
69306;BME280;56427;51.580;4.656;2023-10-08T11:12:58;102606.56;;;20.44;72.14
69306;BME280;56427;51.580;4.656;2023-10-08T11:15:29;102605.22;;;20.80;71.71
69306;BME280;56427;51.580;4.656;2023-10-08T11:18:11;102608.22;;;20.73;71.98
69306;BME280;56427;51.580;4.656;2023-10-08T11:20:37;102613.53;;;20.59;72.46
69306;BME280;56427;51.580;4.656;2023-10-08T11:23:06;102614.97;;;20.51;72.58
69306;BME280;56427;51.580;4.656;2023-10-08T11:25:56;102617.50;;;20.81;71.91
69306;BME280;56427;51.580;4.656;2023-10-08T11:28:32;102616.53;;;20.39;72.83
69306;BME280;56427;51.580;4.656;2023-10-08T11:31:11;102614.53;;;20.42;73.40
69306;BME280;56427;51.580;4.656;2023-10-08T11:33:42;102600.16;;;20.62;72.62
69306;BME280;56427;51.580;4.656;2023-10-08T11:36:17;102592.00;;;20.94;71.47
69306;BME280;56427;51.580;4.656;2023-10-08T11:38:46;102586.75;;;20.80;71.75
69306;BME280;56427;51.580;4.656;2023-10-08T11:41:16;102584.09;;;21.21;70.86
69306;BME280;56427;51.580;4.656;2023-10-08T11:43:53;102573.16;;;21.00;71.48
69306;BME280;56427;51.580;4.656;2023-10-08T11:46:26;102574.63;;;21.04;70.79
69306;BME280;56427;51.580;4.656;2023-10-08T11:49:13;102581.81;;;21.56;69.70
69306;BME280;56427;51.580;4.656;2023-10-08T11:51:45;102583.81;;;21.65;68.58
69306;BME280;56427;51.580;4.656;2023-10-08T11:54:12;102581.69;;;21.45;69.31
69306;BME280;56427;51.580;4.656;2023-10-08T11:56:38;102575.41;;;21.06;71.04
69306;BME280;56427;51.580;4.656;2023-10-08T11:59:04;102573.25;;;21.52;69.34
69306;BME280;56427;51.580;4.656;2023-10-08T12:01:39;102572.25;;;22.19;67.93
69306;BME280;56427;51.580;4.656;2023-10-08T12:04:10;102566.53;;;22.25;66.84
69306;BME280;56427;51.580;4.656;2023-10-08T12:06:40;102572.97;;;22.08;67.80
69306;BME280;56427;51.580;4.656;2023-10-08T12:09:12;102569.50;;;22.33;66.69
69306;BME280;56427;51.580;4.656;2023-10-08T12:11:38;102559.44;;;22.51;66.12
69306;BME280;56427;51.580;4.656;2023-10-08T12:14:05;102558.88;;;23.19;63.92
69306;BME280;56427;51.580;4.656;2023-10-08T12:16:30;102558.09;;;23.06;64.09
69306;BME280;56427;51.580;4.656;2023-10-08T12:19:00;102548.84;;;23.11;63.29
69306;BME280;56427;51.580;4.656;2023-10-08T12:21:27;102549.59;;;22.40;65.23
69306;BME280;56427;51.580;4.656;2023-10-08T12:23:55;102545.06;;;22.79;64.51
69306;BME280;56427;51.580;4.656;2023-10-08T12:26:20;102549.91;;;22.85;65.10
69306;BME280;56427;51.580;4.656;2023-10-08T12:28:47;102548.28;;;23.19;64.38
69306;BME280;56427;51.580;4.656;2023-10-08T12:31:18;102542.72;;;23.11;63.88
69306;BME280;56427;51.580;4.656;2023-10-08T12:33:54;102537.47;;;23.22;64.76
69306;BME280;56427;51.580;4.656;2023-10-08T12:36:23;102534.19;;;23.19;63.64
69306;BME280;56427;51.580;4.656;2023-10-08T12:38:49;102530.28;;;22.64;65.88
69306;BME280;56427;51.580;4.656;2023-10-08T12:41:15;102534.47;;;22.42;65.12
69306;BME280;56427;51.580;4.656;2023-10-08T12:43:45;102517.31;;;22.48;65.58
69306;BME280;56427;51.580;4.656;2023-10-08T12:46:14;102516.41;;;22.23;66.76
69306;BME280;56427;51.580;4.656;2023-10-08T12:48:50;102511.13;;;22.23;65.78
69306;BME280;56427;51.580;4.656;2023-10-08T12:51:24;102513.09;;;22.82;65.52
69306;BME280;56427;51.580;4.656;2023-10-08T12:53:51;102506.16;;;22.55;65.14
69306;BME280;56427;51.580;4.656;2023-10-08T12:56:23;102506.59;;;23.10;64.83
69306;BME280;56427;51.580;4.656;2023-10-08T12:58:57;102501.25;;;22.99;64.97
69306;BME280;56427;51.580;4.656;2023-10-08T13:01:23;102510.44;;;23.41;64.67
69306;BME280;56427;51.580;4.656;2023-10-08T13:03:48;102503.19;;;23.78;62.58
69306;BME280;56427;51.580;4.656;2023-10-08T13:06:15;102508.03;;;23.84;61.76
69306;BME280;56427;51.580;4.656;2023-10-08T13:08:48;102506.66;;;22.24;65.95
69306;BME280;56427;51.580;4.656;2023-10-08T13:11:13;102506.22;;;22.43;66.61
69306;BME280;56427;51.580;4.656;2023-10-08T13:13:39;102504.38;;;22.80;65.46
69306;BME280;56427;51.580;4.656;2023-10-08T13:16:05;102497.38;;;22.92;64.09
69306;BME280;56427;51.580;4.656;2023-10-08T13:18:33;102489.56;;;22.90;65.24
69306;BME280;56427;51.580;4.656;2023-10-08T13:20:59;102483.00;;;22.83;66.14
69306;BME280;56427;51.580;4.656;2023-10-08T13:23:26;102482.03;;;22.84;63.62